Time;durP1;ratioP1;P1;durP2;ratioP2;P2;SDS_P1;SDS_P2;PMS_P1;PMS_P2;Temp;Humidity;BMP_temperature;BMP_pressure;BME280_temperature;BME280_humidity;BME280_pressure;Samples;Min_cycle;Max_cycle;Signal;HPM_P1;HPM_P2
2023/07/24 00:02:28;;;;;;;8.23;3.58;;;;;;;17.37;100.00;100288.47;5006748;28;20098;-71
2023/07/24 00:05:14;;;;;;;7.15;3.20;;;;;;;17.31;100.00;100283.63;5010834;28;20133;-72
2023/07/24 00:07:59;;;;;;;5.18;3.80;;;;;;;17.29;100.00;100286.56;5015014;28;20042;-71
2023/07/24 00:10:45;;;;;;;6.50;3.50;;;;;;;17.20;100.00;100299.59;5010984;28;20061;-72
2023/07/24 00:13:31;;;;;;;5.05;3.40;;;;;;;17.21;100.00;100297.69;5009259;28;20057;-72
2023/07/24 00:16:16;;;;;;;7.18;3.70;;;;;;;17.21;100.00;100286.63;5010695;28;20042;-72
2023/07/24 00:19:02;;;;;;;7.40;4.00;;;;;;;17.20;100.00;100282.09;5005928;28;20042;-71
2023/07/24 00:21:48;;;;;;;7.18;3.97;;;;;;;17.22;100.00;100285.59;5007671;28;20053;-72
2023/07/24 00:24:34;;;;;;;7.15;4.28;;;;;;;17.25;100.00;100285.22;5010653;28;20042;-72
2023/07/24 00:27:19;;;;;;;8.43;4.30;;;;;;;17.24;100.00;100276.03;5010060;28;20603;-72
2023/07/24 00:30:06;;;;;;;8.30;3.95;;;;;;;17.19;100.00;100275.72;5011741;28;20061;-72
2023/07/24 00:32:52;;;;;;;6.70;4.20;;;;;;;17.07;100.00;100272.50;5009778;28;20046;-71
2023/07/24 00:35:37;;;;;;;8.88;4.47;;;;;;;17.11;100.00;100266.59;5004458;28;20095;-71
2023/07/24 00:38:23;;;;;;;7.57;4.53;;;;;;;17.12;100.00;100260.00;5006251;28;20104;-71
2023/07/24 00:41:09;;;;;;;10.90;4.88;;;;;;;17.14;100.00;100269.00;5004311;28;20051;-71
2023/07/24 00:43:55;;;;;;;7.68;5.05;;;;;;;17.13;100.00;100268.13;4985303;28;20069;-71
2023/07/24 00:46:41;;;;;;;10.30;5.20;;;;;;;17.16;100.00;100264.16;4994453;28;20065;-71
2023/07/24 00:49:26;;;;;;;11.50;5.75;;;;;;;17.17;100.00;100254.81;5010930;28;20069;-72
2023/07/24 00:52:13;;;;;;;13.05;5.65;;;;;;;17.22;100.00;100253.22;5012580;28;20096;-71
2023/07/24 00:54:59;;;;;;;15.80;6.43;;;;;;;17.19;100.00;100245.28;5014393;28;20087;-71
2023/07/24 00:57:45;;;;;;;13.90;6.07;;;;;;;17.19;100.00;100245.28;5005664;28;20120;-71
2023/07/24 01:00:31;;;;;;;16.02;6.55;;;;;;;17.17;100.00;100249.28;5011552;28;20044;-72
2023/07/24 01:03:17;;;;;;;12.15;5.80;;;;;;;17.14;100.00;100253.28;5007201;28;20820;-73
2023/07/24 01:06:03;;;;;;;11.80;6.30;;;;;;;17.15;100.00;100243.94;5014458;28;20504;-71
2023/07/24 01:08:49;;;;;;;11.57;6.55;;;;;;;17.19;100.00;100238.91;5014383;28;20030;-72
2023/07/24 01:11:43;;;;;;;11.90;6.72;;;;;;;17.17;100.00;100235.47;5004694;28;20050;-72
2023/07/24 01:14:37;;;;;;;14.13;7.00;;;;;;;17.18;100.00;100232.50;5008953;28;20112;-72
2023/07/24 01:17:24;;;;;;;17.98;7.18;;;;;;;17.19;100.00;100231.47;5010476;28;20107;-73
2023/07/24 01:20:12;;;;;;;17.80;7.18;;;;;;;17.23;100.00;100218.13;5007594;28;20037;-73
2023/07/24 01:23:41;;;;;;;12.35;7.65;;;;;;;-147.95;100.00;58458.38;5008263;28;20041;-73
2023/07/24 01:26:27;;;;;;;14.55;7.35;;;;;;;-147.95;100.00;58458.38;5005992;28;20038;-73
2023/07/24 01:29:13;;;;;;;19.30;8.02;;;;;;;-147.95;100.00;58458.38;5006004;28;20034;-73
2023/07/24 01:31:58;;;;;;;14.50;7.45;;;;;;;-147.95;100.00;58458.38;5003599;28;20044;-73
2023/07/24 01:34:45;;;;;;;26.90;7.97;;;;;;;-147.95;100.00;58458.38;5002739;28;20050;-73
2023/07/24 01:37:33;;;;;;;17.08;8.40;;;;;;;-147.95;100.00;58458.38;5005318;28;20056;-73
2023/07/24 01:40:20;;;;;;;20.95;7.90;;;;;;;-147.95;100.00;58458.38;5005269;28;20092;-74
2023/07/24 01:43:06;;;;;;;20.00;8.98;;;;;;;-147.95;100.00;58458.38;5006730;28;20033;-74
2023/07/24 01:45:52;;;;;;;19.25;9.25;;;;;;;-147.95;100.00;58458.38;5004616;28;20042;-74
2023/07/24 01:48:38;;;;;;;14.13;8.20;;;;;;;-147.95;100.00;58458.38;5005308;28;20046;-74
2023/07/24 01:51:24;;;;;;;18.63;8.73;;;;;;;-147.95;100.00;58458.38;4998624;28;20046;-74
2023/07/24 01:54:10;;;;;;;25.25;9.52;;;;;;;-147.95;100.00;58458.38;4989806;28;20057;-74
2023/07/24 01:56:55;;;;;;;14.93;8.57;;;;;;;-147.95;100.00;58458.38;4974453;28;20042;-74
2023/07/24 01:59:41;;;;;;;14.32;8.40;;;;;;;-147.95;100.00;58458.38;4995840;28;20050;-74
2023/07/24 02:02:27;;;;;;;16.42;8.93;;;;;;;-147.95;100.00;58458.38;5008134;28;20049;-73
2023/07/24 02:05:12;;;;;;;15.95;8.15;;;;;;;-147.95;100.00;58458.38;5001038;28;20356;-73
2023/07/24 02:07:58;;;;;;;18.13;8.75;;;;;;;-147.95;100.00;58458.38;5002406;28;20041;-73
2023/07/24 02:10:44;;;;;;;19.73;9.30;;;;;;;-147.95;100.00;58458.38;4973827;28;20042;-73
2023/07/24 02:13:29;;;;;;;16.45;8.13;;;;;;;-147.95;100.00;58458.38;5008743;28;20072;-73
2023/07/24 02:16:15;;;;;;;20.13;8.25;;;;;;;-147.95;100.00;58458.38;5000204;28;20122;-73
2023/07/24 02:19:01;;;;;;;19.67;8.98;;;;;;;-147.95;100.00;58458.38;4979470;28;20042;-73
2023/07/24 02:21:47;;;;;;;20.17;8.88;;;;;;;-147.95;100.00;58458.38;4980960;28;20057;-73
2023/07/24 02:24:32;;;;;;;15.57;7.72;;;;;;;-147.95;100.00;58458.38;5004522;28;20055;-73
2023/07/24 02:27:31;;;;;;;18.15;8.60;;;;;;;-147.95;100.00;58458.38;5002357;28;20506;-74
2023/07/24 02:30:16;;;;;;;12.23;8.15;;;;;;;-147.95;100.00;58458.38;5001459;28;20060;-73
2023/07/24 02:33:02;;;;;;;19.65;8.40;;;;;;;-147.95;100.00;58458.38;5007350;28;20397;-73
2023/07/24 02:35:51;;;;;;;18.75;8.25;;;;;;;-147.95;100.00;58458.38;5003080;28;20042;-73
2023/07/24 02:38:36;;;;;;;17.05;8.05;;;;;;;-147.95;100.00;58458.38;5001853;28;20533;-73
2023/07/24 02:41:22;;;;;;;17.15;8.32;;;;;;;-147.95;100.00;58458.38;4990508;28;20042;-73
2023/07/24 02:44:08;;;;;;;20.35;7.57;;;;;;;-147.95;100.00;58458.38;5000861;28;20437;-73
2023/07/24 02:46:54;;;;;;;15.50;8.10;;;;;;;-147.95;100.00;58458.38;5007628;28;20068;-74
2023/07/24 02:49:40;;;;;;;21.48;8.50;;;;;;;-147.95;100.00;58458.38;5002196;28;20045;-73
2023/07/24 02:52:25;;;;;;;17.45;8.07;;;;;;;-147.95;100.00;58458.38;5005317;28;20121;-73
2023/07/24 02:55:11;;;;;;;20.83;8.82;;;;;;;-147.95;100.00;58458.38;5007767;28;20401;-73
2023/07/24 02:57:58;;;;;;;19.58;9.07;;;;;;;-147.95;100.00;58458.38;5006887;28;20061;-73
2023/07/24 03:00:44;;;;;;;18.20;8.65;;;;;;;-147.95;100.00;58458.38;4999811;28;20038;-73
2023/07/24 03:03:29;;;;;;;21.25;8.65;;;;;;;-147.95;100.00;58458.38;4998171;28;20046;-73
2023/07/24 03:06:15;;;;;;;23.17;9.38;;;;;;;-147.95;100.00;58458.38;5005622;28;20037;-73
2023/07/24 03:09:01;;;;;;;29.65;10.20;;;;;;;-147.95;100.00;58458.38;5003447;28;20038;-73
2023/07/24 03:11:47;;;;;;;29.73;9.82;;;;;;;-147.95;100.00;58458.38;5000424;28;20061;-73
2023/07/24 03:14:32;;;;;;;30.67;10.50;;;;;;;-147.95;100.00;58458.38;5005350;28;20038;-73
2023/07/24 03:17:18;;;;;;;70.75;12.32;;;;;;;-147.95;100.00;58458.38;4989662;28;20059;-72
2023/07/24 03:20:15;;;;;;;38.03;10.50;;;;;;;-147.95;100.00;58458.38;5000276;28;20046;-71
2023/07/24 03:23:01;;;;;;;43.80;10.63;;;;;;;-147.95;100.00;58458.38;5003057;28;20081;-71
2023/07/24 03:25:46;;;;;;;25.60;7.97;;;;;;;-147.95;100.00;58458.38;5003878;28;20496;-72
2023/07/24 03:28:32;;;;;;;33.78;8.60;;;;;;;-147.95;100.00;58458.38;5001545;28;20042;-72
2023/07/24 03:31:18;;;;;;;15.73;7.60;;;;;;;-147.95;100.00;58458.38;5003245;28;20034;-72
2023/07/24 03:34:04;;;;;;;13.25;4.57;;;;;;;-147.95;100.00;58458.38;4986518;28;20077;-72
2023/07/24 03:36:49;;;;;;;12.90;4.32;;;;;;;-147.95;100.00;58458.38;5004161;28;20125;-72
2023/07/24 03:39:35;;;;;;;12.07;4.03;;;;;;;-147.95;100.00;58458.38;5002738;28;20153;-72
2023/07/24 03:42:30;;;;;;;13.45;3.55;;;;;;;-147.95;100.00;58458.38;5001143;28;20033;-72
2023/07/24 03:45:16;;;;;;;7.20;2.67;;;;;;;-147.95;100.00;58458.38;5008121;28;20105;-72
2023/07/24 03:48:01;;;;;;;7.28;3.28;;;;;;;-147.95;100.00;58458.38;5006385;28;20050;-72
2023/07/24 03:50:49;;;;;;;11.23;2.90;;;;;;;-147.95;100.00;58458.38;5000151;28;20049;-72
2023/07/24 03:53:35;;;;;;;5.57;2.92;;;;;;;-147.95;100.00;58458.38;5001924;28;20686;-72
2023/07/24 03:56:21;;;;;;;7.53;3.08;;;;;;;-147.95;100.00;58458.38;4989010;28;20450;-72
2023/07/24 03:59:06;;;;;;;6.57;2.95;;;;;;;-147.95;100.00;58458.38;4979408;28;20478;-72
2023/07/24 04:01:52;;;;;;;8.38;3.08;;;;;;;-147.95;100.00;58458.38;5003293;28;20038;-72
2023/07/24 04:04:38;;;;;;;4.72;2.58;;;;;;;-147.95;100.00;58458.38;5003917;28;20041;-71
2023/07/24 04:07:24;;;;;;;4.47;2.65;;;;;;;-147.95;100.00;58458.38;5000999;28;20030;-72
2023/07/24 04:10:09;;;;;;;5.22;3.17;;;;;;;-147.95;100.00;58458.38;5001857;28;20472;-72
2023/07/24 04:12:56;;;;;;;5.00;3.03;;;;;;;-147.95;100.00;58458.38;5003540;28;20042;-72
2023/07/24 04:15:44;;;;;;;9.57;3.70;;;;;;;-147.95;100.00;58458.38;5009913;28;20428;-71
2023/07/24 04:18:29;;;;;;;10.38;3.75;;;;;;;-147.95;100.00;58458.38;5006540;28;20137;-71
2023/07/24 04:21:15;;;;;;;5.95;3.85;;;;;;;-147.95;100.00;58458.38;5010082;28;20053;-72
2023/07/24 04:24:01;;;;;;;6.78;3.97;;;;;;;-147.95;100.00;58458.38;5008410;28;20065;-72
2023/07/24 04:26:47;;;;;;;6.88;3.92;;;;;;;-147.95;100.00;58458.38;4992636;28;20116;-72
2023/07/24 04:29:32;;;;;;;7.57;4.18;;;;;;;-147.95;100.00;58458.38;5020793;28;20172;-72
2023/07/24 04:32:18;;;;;;;7.13;4.13;;;;;;;-147.95;100.00;58458.38;4995984;28;20034;-72
2023/07/24 04:35:04;;;;;;;11.35;4.68;;;;;;;-147.95;100.00;58458.38;4991356;28;20134;-72
2023/07/24 04:37:51;;;;;;;8.93;4.15;;;;;;;-147.95;100.00;58458.38;5007170;28;20046;-74
2023/07/24 04:40:36;;;;;;;8.63;4.32;;;;;;;-147.95;100.00;58458.38;5007308;28;20520;-73
2023/07/24 04:43:22;;;;;;;10.90;4.50;;;;;;;-147.95;100.00;58458.38;5008299;28;20116;-73
2023/07/24 04:46:08;;;;;;;11.57;5.07;;;;;;;-147.95;100.00;58458.38;5012521;28;20511;-72
2023/07/24 04:48:54;;;;;;;9.25;5.10;;;;;;;-147.95;100.00;58458.38;4991050;28;20494;-72
2023/07/24 04:51:39;;;;;;;7.88;4.80;;;;;;;-147.95;100.00;58458.38;5003175;28;20053;-72
2023/07/24 04:54:25;;;;;;;7.15;4.30;;;;;;;-147.95;100.00;58458.38;4997472;28;20535;-71
2023/07/24 04:57:11;;;;;;;10.15;4.65;;;;;;;-147.95;100.00;58458.38;4990983;28;20038;-72
2023/07/24 04:59:56;;;;;;;10.50;4.80;;;;;;;-147.95;100.00;58458.38;4992969;28;20112;-71
2023/07/24 05:02:42;;;;;;;11.85;5.03;;;;;;;-147.95;100.00;58458.38;5009630;28;20050;-72
2023/07/24 05:05:28;;;;;;;10.75;4.97;;;;;;;-147.95;100.00;58458.38;4996013;28;20041;-72
2023/07/24 05:08:13;;;;;;;9.57;4.90;;;;;;;-147.95;100.00;58458.38;4996442;28;20038;-72
2023/07/24 05:10:59;;;;;;;9.10;5.30;;;;;;;-147.95;100.00;58458.38;4995547;28;20073;-71
2023/07/24 05:13:45;;;;;;;10.10;5.38;;;;;;;-147.95;100.00;58458.38;5000596;28;20568;-71
2023/07/24 05:16:31;;;;;;;10.20;5.57;;;;;;;-147.95;100.00;58458.38;5007468;28;20874;-72
2023/07/24 05:19:16;;;;;;;9.43;5.32;;;;;;;-147.95;100.00;58458.38;5007726;28;20050;-71
2023/07/24 05:22:02;;;;;;;7.57;5.63;;;;;;;-147.95;100.00;58458.38;5006515;28;20129;-72
2023/07/24 05:24:48;;;;;;;11.52;5.47;;;;;;;-147.95;100.00;58458.38;5007701;28;20042;-72
2023/07/24 05:27:35;;;;;;;9.02;5.95;;;;;;;-147.95;100.00;58458.38;4997256;28;20485;-72
2023/07/24 05:30:21;;;;;;;13.60;6.45;;;;;;;-147.95;100.00;58458.38;4996441;28;20034;-72
2023/07/24 05:33:07;;;;;;;10.80;6.38;;;;;;;-147.95;100.00;58458.38;5000718;28;20050;-71
2023/07/24 05:36:01;;;;;;;10.75;6.55;;;;;;;-147.95;100.00;58458.38;5000241;28;20101;-73
2023/07/24 05:38:47;;;;;;;15.27;7.22;;;;;;;-147.95;100.00;58458.38;5005546;28;20042;-72
2023/07/24 05:41:32;;;;;;;11.93;7.03;;;;;;;-147.95;100.00;58458.38;5009211;28;20110;-73
2023/07/24 05:44:18;;;;;;;10.10;6.10;;;;;;;-147.95;100.00;58458.38;5002670;28;20088;-72
2023/07/24 05:47:04;;;;;;;7.40;5.30;;;;;;;-147.95;100.00;58458.38;5019266;28;20041;-73
2023/07/24 05:49:49;;;;;;;11.65;5.40;;;;;;;-147.95;100.00;58458.38;5001201;28;20072;-73
2023/07/24 05:52:35;;;;;;;9.35;5.88;;;;;;;-147.95;100.00;58458.38;5003305;28;20112;-73
2023/07/24 05:55:21;;;;;;;7.95;4.88;;;;;;;-147.95;100.00;58458.38;5005785;28;20061;-73
2023/07/24 05:58:07;;;;;;;7.65;5.47;;;;;;;-147.95;100.00;58458.38;5001692;28;20577;-73
2023/07/24 06:00:53;;;;;;;9.68;5.70;;;;;;;-147.95;100.00;58458.38;4981222;28;20482;-73
2023/07/24 06:03:41;;;;;;;9.07;5.50;;;;;;;-147.95;100.00;58458.38;5006708;28;20517;-73
2023/07/24 06:06:28;;;;;;;7.05;5.22;;;;;;;-147.95;100.00;58458.38;4998387;28;20030;-73
2023/07/24 06:09:13;;;;;;;7.47;4.50;;;;;;;-147.95;100.00;58458.38;4975429;28;20038;-73
2023/07/24 06:11:59;;;;;;;10.07;5.18;;;;;;;-147.95;100.00;58458.38;4999753;28;20048;-73
2023/07/24 06:14:48;;;;;;;7.65;5.50;;;;;;;-147.95;100.00;58458.38;4977123;28;20416;-73
2023/07/24 06:17:34;;;;;;;6.97;5.10;;;;;;;-147.95;100.00;58458.38;5000178;28;20109;-73
2023/07/24 06:20:19;;;;;;;7.22;5.32;;;;;;;-147.95;100.00;58458.38;4964785;28;20567;-73
2023/07/24 06:23:05;;;;;;;10.95;5.93;;;;;;;-147.95;100.00;58458.38;5002148;28;20158;-73
2023/07/24 06:25:52;;;;;;;11.25;7.68;;;;;;;-147.95;100.00;58458.38;5004099;28;20030;-73
2023/07/24 06:28:38;;;;;;;8.98;5.95;;;;;;;-147.95;100.00;58458.38;4988602;28;20541;-73
2023/07/24 06:31:24;;;;;;;9.20;5.43;;;;;;;-147.95;100.00;58458.38;5007101;28;20088;-73
2023/07/24 06:34:09;;;;;;;8.60;4.97;;;;;;;-147.95;100.00;58458.38;5001157;28;20113;-73
2023/07/24 06:36:55;;;;;;;5.95;4.63;;;;;;;-147.95;100.00;58458.38;4995894;28;20074;-73
2023/07/24 06:39:41;;;;;;;8.98;4.80;;;;;;;-147.95;100.00;58458.38;4990471;28;20122;-74
2023/07/24 06:42:27;;;;;;;7.63;5.07;;;;;;;-147.95;100.00;58458.38;5007447;28;20042;-74
2023/07/24 06:45:13;;;;;;;7.15;4.53;;;;;;;-147.95;100.00;58458.38;4983695;28;20042;-73
2023/07/24 06:47:59;;;;;;;10.02;5.70;;;;;;;-147.95;100.00;58458.38;5002014;28;20041;-74
2023/07/24 06:50:44;;;;;;;8.35;4.68;;;;;;;-147.95;100.00;58458.38;4999453;28;20046;-74
2023/07/24 06:53:30;;;;;;;6.50;5.00;;;;;;;-147.95;100.00;58458.38;5002489;28;20042;-74
2023/07/24 06:56:16;;;;;;;5.90;4.30;;;;;;;-147.95;100.00;58458.38;4995495;28;20560;-74
2023/07/24 06:59:02;;;;;;;6.00;4.00;;;;;;;-147.95;100.00;58458.38;4994808;28;20500;-75
2023/07/24 07:01:47;;;;;;;5.72;3.35;;;;;;;-147.95;100.00;58458.38;5004944;28;20045;-74
2023/07/24 07:04:34;;;;;;;5.22;3.88;;;;;;;-147.95;100.00;58458.38;5005661;28;20045;-74
2023/07/24 07:07:19;;;;;;;4.95;3.55;;;;;;;-147.95;100.00;58458.38;5001011;28;20042;-74
2023/07/24 07:10:06;;;;;;;6.18;4.70;;;;;;;-147.95;100.00;58458.38;4990162;28;20033;-74
2023/07/24 07:12:51;;;;;;;6.35;3.90;;;;;;;-147.95;100.00;58458.38;4995609;28;20166;-75
2023/07/24 07:15:37;;;;;;;8.02;4.13;;;;;;;-147.95;100.00;58458.38;4999872;28;20556;-74
2023/07/24 07:18:23;;;;;;;10.20;5.10;;;;;;;-147.95;100.00;58458.38;4970764;28;20069;-75
2023/07/24 07:21:09;;;;;;;6.18;4.50;;;;;;;-147.95;100.00;58458.38;5003556;28;20393;-75
2023/07/24 07:23:55;;;;;;;8.18;4.72;;;;;;;-147.95;100.00;58458.38;5000598;28;20678;-75
2023/07/24 07:26:40;;;;;;;10.98;4.88;;;;;;;-147.95;100.00;58458.38;5003119;28;20504;-74
2023/07/24 07:29:26;;;;;;;7.18;5.28;;;;;;;-147.95;100.00;58458.38;5002437;28;20549;-75
2023/07/24 07:32:12;;;;;;;9.88;5.10;;;;;;;-147.95;100.00;58458.38;5003206;28;20038;-75
2023/07/24 07:34:57;;;;;;;7.68;5.22;;;;;;;-147.95;100.00;58458.38;5000437;28;20049;-75
2023/07/24 07:37:43;;;;;;;7.15;4.68;;;;;;;-147.95;100.00;58458.38;4999886;28;20549;-76
2023/07/24 07:40:29;;;;;;;12.43;4.22;;;;;;;-147.95;100.00;58458.38;4975636;28;20053;-77
2023/07/24 07:43:15;;;;;;;8.15;4.05;;;;;;;-147.95;100.00;58458.38;5002148;28;20046;-76
2023/07/24 07:46:01;;;;;;;8.68;4.22;;;;;;;-147.95;100.00;58458.38;4999656;28;20073;-75
2023/07/24 07:48:47;;;;;;;8.90;4.53;;;;;;;-147.95;100.00;58458.38;5006282;28;20740;-75
2023/07/24 07:51:32;;;;;;;9.50;4.30;;;;;;;-147.95;100.00;58458.38;4998970;28;20491;-75
2023/07/24 07:54:18;;;;;;;6.63;4.43;;;;;;;-147.95;100.00;58458.38;5001391;28;20073;-75
2023/07/24 07:57:04;;;;;;;6.55;3.90;;;;;;;-147.95;100.00;58458.38;5000766;28;20482;-75
2023/07/24 07:59:50;;;;;;;9.23;3.53;;;;;;;-147.95;100.00;58458.38;5004010;28;20041;-76
2023/07/24 08:02:39;;;;;;;5.68;3.25;;;;;;;-147.95;100.00;58458.38;4995955;28;20046;-77
2023/07/24 08:05:25;;;;;;;6.47;3.65;;;;;;;-147.95;100.00;58458.38;4991427;28;20029;-76
2023/07/24 08:08:10;;;;;;;6.10;3.92;;;;;;;-147.95;100.00;58458.38;4997113;28;20038;-76
2023/07/24 08:10:56;;;;;;;9.00;3.55;;;;;;;-147.95;100.00;58458.38;4997612;28;20342;-75
2023/07/24 08:13:42;;;;;;;8.65;3.28;;;;;;;-147.95;100.00;58458.38;5001479;28;20042;-76
2023/07/24 08:16:28;;;;;;;5.90;3.03;;;;;;;-147.95;100.00;58458.38;4999100;28;20046;-76
2023/07/24 08:19:14;;;;;;;5.47;3.80;;;;;;;-147.95;100.00;58458.38;4988227;28;20051;-75
2023/07/24 08:21:59;;;;;;;5.90;3.78;;;;;;;-147.95;100.00;58458.38;4974138;28;20124;-75
2023/07/24 08:24:46;;;;;;;6.47;3.55;;;;;;;-147.95;100.00;58458.38;4986412;28;20092;-75
2023/07/24 08:27:32;;;;;;;8.02;4.18;;;;;;;-147.95;100.00;58458.38;4985529;28;20035;-75
2023/07/24 08:30:18;;;;;;;6.13;3.70;;;;;;;-147.95;100.00;58458.38;4999816;28;20053;-74
2023/07/24 08:33:04;;;;;;;6.38;3.35;;;;;;;-147.95;100.00;58458.38;4993775;28;20042;-74
2023/07/24 08:36:01;;;;;;;6.05;4.25;;;;;;;-147.95;100.00;58458.38;5003948;28;20054;-74
2023/07/24 08:38:47;;;;;;;6.18;3.63;;;;;;;-147.95;100.00;58458.38;5004180;28;20074;-74
2023/07/24 08:41:34;;;;;;;7.38;3.95;;;;;;;-147.95;100.00;58458.38;5000465;28;20493;-74
2023/07/24 08:44:20;;;;;;;5.72;3.38;;;;;;;-147.95;100.00;58458.38;4998687;28;20038;-74
2023/07/24 08:47:10;;;;;;;8.90;5.00;;;;;;;-147.95;100.00;58458.38;5004410;28;20069;-76
2023/07/24 08:49:56;;;;;;;8.80;4.72;;;;;;;-147.95;100.00;58458.38;5002648;28;20038;-74
2023/07/24 08:52:44;;;;;;;9.63;4.93;;;;;;;-147.95;100.00;58458.38;5000357;28;20377;-74
2023/07/24 08:55:30;;;;;;;12.02;4.45;;;;;;;-147.95;100.00;58458.38;5004634;28;20050;-74
2023/07/24 08:58:16;;;;;;;7.57;4.05;;;;;;;-147.95;100.00;58458.38;4989372;28;20104;-72
2023/07/24 09:01:03;;;;;;;6.88;3.95;;;;;;;-147.95;100.00;58458.38;5013264;28;20074;-71
2023/07/24 09:03:49;;;;;;;7.60;4.03;;;;;;;-147.95;100.00;58458.38;5017653;28;20038;-70
2023/07/24 09:06:35;;;;;;;7.43;3.65;;;;;;;-147.95;100.00;58458.38;5016840;28;20057;-74
2023/07/24 09:09:21;;;;;;;8.45;3.83;;;;;;;-147.95;100.00;58458.38;5019030;28;20038;-72
2023/07/24 09:12:07;;;;;;;4.43;3.38;;;;;;;-147.95;100.00;58458.38;5015137;28;20053;-71
2023/07/24 09:15:06;;;;;;;7.68;4.07;;;;;;;-147.95;100.00;58458.38;5009052;28;20038;-72
2023/07/24 09:17:53;;;;;;;6.95;4.00;;;;;;;-147.95;100.00;58458.38;5009477;28;20056;-71
2023/07/24 09:20:43;;;;;;;6.75;3.78;;;;;;;-147.95;100.00;58458.38;5012257;28;20050;-73
2023/07/24 09:23:28;;;;;;;4.75;3.50;;;;;;;-147.95;100.00;58458.38;5012137;28;20054;-71
2023/07/24 09:26:14;;;;;;;8.45;4.40;;;;;;;-147.95;100.00;58458.38;4994990;28;20148;-71
2023/07/24 09:29:00;;;;;;;8.43;4.43;;;;;;;-147.95;100.00;58458.38;5007961;28;20076;-72
2023/07/24 09:31:46;;;;;;;6.55;4.50;;;;;;;-147.95;100.00;58458.38;4981717;28;20137;-71
2023/07/24 09:34:32;;;;;;;7.35;4.30;;;;;;;-147.95;100.00;58458.38;5003565;28;20046;-71
2023/07/24 09:37:28;;;;;;;10.90;4.63;;;;;;;-147.95;100.00;58458.38;4994020;28;20180;-73
2023/07/24 09:40:15;;;;;;;8.23;4.32;;;;;;;-147.95;100.00;58458.38;5005413;28;20042;-72
2023/07/24 09:43:00;;;;;;;10.15;4.50;;;;;;;-147.95;100.00;58458.38;5010027;28;20030;-74
2023/07/24 09:45:47;;;;;;;6.22;4.07;;;;;;;-147.95;100.00;58458.38;4992703;28;20042;-72
2023/07/24 09:48:34;;;;;;;5.55;3.80;;;;;;;-147.95;100.00;58458.38;5006881;28;20456;-72
2023/07/24 09:51:20;;;;;;;6.60;3.75;;;;;;;-147.95;100.00;58458.38;5010603;28;20034;-72
2023/07/24 09:54:16;;;;;;;7.38;4.10;;;;;;;-147.95;100.00;58458.38;5008547;28;20054;-72
2023/07/24 09:57:02;;;;;;;5.32;3.40;;;;;;;-147.95;100.00;58458.38;5000657;28;20038;-74
2023/07/24 09:59:49;;;;;;;7.78;2.70;;;;;;;-147.95;100.00;58458.38;5008285;28;20041;-71
2023/07/24 10:02:36;;;;;;;5.65;2.90;;;;;;;-147.95;100.00;58458.38;5008398;28;20041;-71
2023/07/24 10:05:22;;;;;;;5.93;3.33;;;;;;;-147.95;100.00;58458.38;5006760;28;20075;-74
2023/07/24 10:08:10;;;;;;;6.85;3.88;;;;;;;-147.95;100.00;58458.38;5005778;28;20405;-71
2023/07/24 10:10:56;;;;;;;5.05;3.08;;;;;;;-147.95;100.00;58458.38;5007042;28;20038;-72
2023/07/24 10:13:43;;;;;;;8.18;3.67;;;;;;;-147.95;100.00;58458.38;5005032;28;20049;-72
2023/07/24 10:16:28;;;;;;;5.90;3.35;;;;;;;-147.95;100.00;58458.38;5010970;28;20034;-72
2023/07/24 10:19:18;;;;;;;6.68;3.40;;;;;;;-147.95;100.00;58458.38;5002803;28;20038;-73
2023/07/24 10:22:04;;;;;;;7.55;3.90;;;;;;;-147.95;100.00;58458.38;5009910;28;20065;-73
2023/07/24 10:24:50;;;;;;;11.13;3.63;;;;;;;-147.95;100.00;58458.38;4997742;28;20510;-71
2023/07/24 10:27:39;;;;;;;5.68;4.05;;;;;;;-147.95;100.00;58458.38;5005771;28;20042;-71
2023/07/24 10:30:29;;;;;;;6.95;4.05;;;;;;;-147.95;100.00;58458.38;5006277;28;20493;-70
2023/07/24 10:33:20;;;;;;;7.82;4.15;;;;;;;-147.95;100.00;58458.38;5008234;28;20030;-71
2023/07/24 10:36:13;;;;;;;9.20;4.68;;;;;;;-147.95;100.00;58458.38;5009188;28;20038;-71
2023/07/24 10:38:59;;;;;;;;;;;;;;;-147.95;100.00;58458.38;5007783;28;20042;-70
2023/07/24 10:41:46;;;;;;;6.82;3.95;;;;;;;-147.95;100.00;58458.38;5005985;28;19918;-70
2023/07/24 10:44:32;;;;;;;8.25;3.85;;;;;;;-147.95;100.00;58458.38;5010821;28;20033;-70
2023/07/24 10:47:20;;;;;;;6.20;3.88;;;;;;;-147.95;100.00;58458.38;5003379;28;20132;-73
2023/07/24 10:50:06;;;;;;;6.13;3.83;;;;;;;-147.95;100.00;58458.38;4996331;28;20053;-72
2023/07/24 10:52:52;;;;;;;8.73;4.38;;;;;;;-147.95;100.00;58458.38;5013627;28;20116;-71
2023/07/24 10:55:38;;;;;;;8.48;4.70;;;;;;;-147.95;100.00;58458.38;5003272;28;20081;-70
2023/07/24 10:58:25;;;;;;;8.07;4.65;;;;;;;-147.95;100.00;58458.38;5014243;28;20034;-70
2023/07/24 11:01:10;;;;;;;9.02;5.55;;;;;;;-147.95;100.00;58458.38;5000874;28;20030;-71
2023/07/24 11:03:56;;;;;;;10.82;5.10;;;;;;;-147.95;100.00;58458.38;5011348;28;20410;-71
2023/07/24 11:06:42;;;;;;;9.88;5.88;;;;;;;-147.95;100.00;58458.38;5012118;28;20037;-70
2023/07/24 11:09:39;;;;;;;7.05;5.47;;;;;;;-147.95;100.00;58458.38;5001222;28;20068;-71
2023/07/24 11:12:30;;;;;;;8.55;5.63;;;;;;;-147.95;100.00;58458.38;5002584;28;20045;-71
2023/07/24 11:15:16;;;;;;;9.88;5.70;;;;;;;-147.95;100.00;58458.38;4995683;28;20049;-72
2023/07/24 11:18:02;;;;;;;12.90;6.07;;;;;;;-147.95;100.00;58458.38;4997084;28;20050;-70
2023/07/24 11:20:50;;;;;;;15.05;6.22;;;;;;;-147.95;100.00;58458.38;5009253;28;20042;-71
2023/07/24 11:23:36;;;;;;;9.20;6.05;;;;;;;-147.95;100.00;58458.38;5006662;28;20446;-71
2023/07/24 11:26:23;;;;;;;11.30;5.72;;;;;;;-147.95;100.00;58458.38;4982379;28;20048;-70
2023/07/24 11:29:12;;;;;;;13.30;6.75;;;;;;;-147.95;100.00;58458.38;5004850;28;20046;-70
2023/07/24 11:31:58;;;;;;;12.43;6.20;;;;;;;-147.95;100.00;58458.38;5002483;28;20391;-71
2023/07/24 11:34:44;;;;;;;14.32;6.35;;;;;;;-147.95;100.00;58458.38;5010932;28;20502;-71
2023/07/24 11:37:31;;;;;;;10.50;6.30;;;;;;;-147.95;100.00;58458.38;5015046;28;20026;-72
2023/07/24 11:40:19;;;;;;;10.60;6.88;;;;;;;-147.95;100.00;58458.38;5014963;28;20061;-71
2023/07/24 11:43:16;;;;;;;12.75;6.55;;;;;;;-147.95;100.00;58458.38;5004213;28;20486;-71
2023/07/24 11:46:01;;;;;;;13.48;6.72;;;;;;;-147.95;100.00;58458.38;5015333;28;20034;-70
2023/07/24 11:48:48;;;;;;;11.90;6.53;;;;;;;-147.95;100.00;58458.38;5004421;28;20041;-74
2023/07/24 11:51:36;;;;;;;11.77;5.82;;;;;;;-147.95;100.00;58458.38;4999866;28;20125;-73
2023/07/24 11:54:22;;;;;;;10.25;5.18;;;;;;;-147.95;100.00;58458.38;5011742;28;20042;-71
2023/07/24 11:57:16;;;;;;;7.55;5.18;;;;;;;-147.95;100.00;58458.38;5015570;28;20064;-71
2023/07/24 12:00:03;;;;;;;6.07;4.55;;;;;;;-147.95;100.00;58458.38;4996143;28;20531;-72
2023/07/24 12:02:50;;;;;;;8.60;4.10;;;;;;;-147.95;100.00;58458.38;5006190;28;20065;-71
2023/07/24 12:05:43;;;;;;;7.57;4.82;;;;;;;-147.95;100.00;58458.38;5005916;28;20045;-71
2023/07/24 12:08:34;;;;;;;5.40;4.20;;;;;;;-147.95;100.00;58458.38;5007912;28;20089;-71
2023/07/24 12:11:19;;;;;;;6.40;3.50;;;;;;;-147.95;100.00;58458.38;5008714;28;20030;-71
2023/07/24 12:14:05;;;;;;;6.40;4.28;;;;;;;-147.95;100.00;58458.38;4998574;28;20054;-71
2023/07/24 12:17:06;;;;;;;5.20;4.03;;;;;;;-147.95;100.00;58458.38;4987022;28;20049;-71
2023/07/24 12:19:51;;;;;;;7.57;4.07;;;;;;;-147.95;100.00;58458.38;4995032;28;20042;-71
2023/07/24 12:22:38;;;;;;;6.97;4.13;;;;;;;-147.95;100.00;58458.38;5010423;28;20527;-71
2023/07/24 12:25:24;;;;;;;5.85;4.43;;;;;;;-147.95;100.00;58458.38;5002289;28;20501;-70
2023/07/24 12:28:10;;;;;;;8.43;4.88;;;;;;;-147.95;100.00;58458.38;5006993;28;20034;-71
2023/07/24 12:30:55;;;;;;;8.70;5.55;;;;;;;-147.95;100.00;58458.38;4999389;28;20030;-73
2023/07/24 12:33:41;;;;;;;6.63;4.65;;;;;;;-147.95;100.00;58458.38;5005095;28;20038;-71
2023/07/24 12:36:27;;;;;;;6.07;4.70;;;;;;;-147.95;100.00;58458.38;5013721;28;20125;-71